MiSS Sylvia — WDE5412 — position and weather

sailwx.info

Track history (hours):
 
Tides and Currents Weather Stations Pressure Air Temp Water Temp Dewpoint Dewpoint Depression Visibility Wind Speed Wind Dir Waves Ship Positions

MiSS Sylvia

Owner: DOUBLE J MARINE, LLC, LAPLACE, LA. More information available from US FCC via Universal Licensing System and Coast Guard Vessel Documentation Center.

Last reported at 2014-Oct-29 12:32 UTC. Time now 2014-Nov-01 05:28 UTC.
Position N 30°03' W 090°28'.

Length 20 m; draft 2.7 m.

Type: Towing. MMSI: 367366340.

Date/timePositionNaut miles runAvg speedWind from/ knotsBaromVisibWave heightAir tempDewpointWater temp
2014-Oct-29 12:32N 30°03' W 090°28'1 0.0
2014-Oct-28 11:18N 30°02' W 090°29'1 0.7
2014-Oct-28 10:33N 30°02' W 090°29'1 0.6
2014-Oct-28 08:33N 30°01' W 090°28'28 0.7
2014-Oct-26 14:29N 30°07' W 090°60'1 0.7
2014-Oct-26 13:10N 30°07' W 091°01'1 1.6
2014-Oct-26 12:33N 30°07' W 091°02'2 1.2
2014-Oct-26 10:32N 30°07' W 090°59'1 1.2
2014-Oct-26 09:33N 30°07' W 091°00'4 4.2
2014-Oct-26 08:31N 30°11' W 091°01'6 6.0
2014-Oct-26 07:27N 30°11' W 091°08'5 5.2
2014-Oct-26 06:32N 30°15' W 091°07'0 0.0
2014-Oct-25 12:08N 30°15' W 091°07'2 2.7
2014-Oct-25 11:15N 30°14' W 091°09'2 2.4
2014-Oct-25 10:33N 30°12' W 091°10'2 1.9
2014-Oct-25 09:29N 30°11' W 091°08'3 2.9
2014-Oct-25 08:33N 30°13' W 091°06'4 2.6
2014-Oct-25 07:05N 30°11' W 091°01'4 2.5
2014-Oct-25 05:25N 30°07' W 091°02'22 1.4
2014-Oct-24 14:13N 30°02' W 090°37'2 2.5
2014-Oct-24 13:33N 30°03' W 090°36'6 1.6
2014-Oct-24 09:32N 30°03' W 090°28'1 1.0
2014-Oct-24 08:28N 30°03' W 090°29'4 4.1
2014-Oct-24 07:23N 30°03' W 090°34'0 0.0
2014-Oct-24 05:26N 30°03' W 090°34'1 0.7
2014-Oct-24 04:26N 30°03' W 090°34'18 1.1
2014-Oct-23 12:10N 29°58' W 090°14'9 0.9
2014-Oct-23 02:29N 29°55' W 090°05'3 2.4
2014-Oct-23 01:11N 29°57' W 090°02'5 1.9
2014-Oct-22 22:24N 29°55' W 089°56'1 0.3
2014-Oct-22 20:33N 29°55' W 089°56'11 1.3
2014-Oct-22 12:33N 29°46' W 090°01'30 1.3
2014-Oct-21 14:03N 30°03' W 090°30'2 1.8
2014-Oct-21 13:13N 30°02' W 090°28'1 1.3
2014-Oct-21 12:32N 30°03' W 090°29'0 0.3
2014-Oct-21 11:27N 30°03' W 090°28'0 0.0
2014-Oct-21 10:30N 30°03' W 090°28'0 0.1
2014-Oct-21 09:05N 30°03' W 090°29'0 0.1
2014-Oct-21 08:15N 30°03' W 090°29'1 0.5
2014-Oct-21 07:08N 30°02' W 090°29'  
Track history (hours):
 
Tides and Currents Weather Stations Pressure Air Temp Water Temp Dewpoint Dewpoint Depression Visibility Wind Speed Wind Dir Waves Ship Positions

MiSS Sylvia

Owner: DOUBLE J MARINE, LLC, LAPLACE, LA. More information available from US FCC via Universal Licensing System and Coast Guard Vessel Documentation Center.

Last reported at 2014-Oct-29 12:32 UTC. Time now 2014-Nov-01 05:28 UTC.
Position N 30°03' W 090°28'.

Length 20 m; draft 2.7 m.

Type: Towing. MMSI: 367366340.

Date/timePositionNaut miles runAvg speedWind from/ knotsBaromVisibWave heightAir tempDewpointWater temp
2014-Oct-29 12:32N 30°03' W 090°28'1 0.0
2014-Oct-28 11:18N 30°02' W 090°29'1 0.7
2014-Oct-28 10:33N 30°02' W 090°29'1 0.6
2014-Oct-28 08:33N 30°01' W 090°28'28 0.7
2014-Oct-26 14:29N 30°07' W 090°60'1 0.7
2014-Oct-26 13:10N 30°07' W 091°01'1 1.6
2014-Oct-26 12:33N 30°07' W 091°02'2 1.2
2014-Oct-26 10:32N 30°07' W 090°59'1 1.2
2014-Oct-26 09:33N 30°07' W 091°00'4 4.2
2014-Oct-26 08:31N 30°11' W 091°01'6 6.0
2014-Oct-26 07:27N 30°11' W 091°08'5 5.2
2014-Oct-26 06:32N 30°15' W 091°07'0 0.0
2014-Oct-25 12:08N 30°15' W 091°07'2 2.7
2014-Oct-25 11:15N 30°14' W 091°09'2 2.4
2014-Oct-25 10:33N 30°12' W 091°10'2 1.9
2014-Oct-25 09:29N 30°11' W 091°08'3 2.9
2014-Oct-25 08:33N 30°13' W 091°06'4 2.6
2014-Oct-25 07:05N 30°11' W 091°01'4 2.5
2014-Oct-25 05:25N 30°07' W 091°02'22 1.4
2014-Oct-24 14:13N 30°02' W 090°37'2 2.5
2014-Oct-24 13:33N 30°03' W 090°36'6 1.6
2014-Oct-24 09:32N 30°03' W 090°28'1 1.0
2014-Oct-24 08:28N 30°03' W 090°29'4 4.1
2014-Oct-24 07:23N 30°03' W 090°34'0 0.0
2014-Oct-24 05:26N 30°03' W 090°34'1 0.7
2014-Oct-24 04:26N 30°03' W 090°34'18 1.1
2014-Oct-23 12:10N 29°58' W 090°14'9 0.9
2014-Oct-23 02:29N 29°55' W 090°05'3 2.4
2014-Oct-23 01:11N 29°57' W 090°02'5 1.9
2014-Oct-22 22:24N 29°55' W 089°56'1 0.3
2014-Oct-22 20:33N 29°55' W 089°56'11 1.3
2014-Oct-22 12:33N 29°46' W 090°01'30 1.3
2014-Oct-21 14:03N 30°03' W 090°30'2 1.8
2014-Oct-21 13:13N 30°02' W 090°28'1 1.3
2014-Oct-21 12:32N 30°03' W 090°29'0 0.3
2014-Oct-21 11:27N 30°03' W 090°28'0 0.0
2014-Oct-21 10:30N 30°03' W 090°28'0 0.1
2014-Oct-21 09:05N 30°03' W 090°29'0 0.1
2014-Oct-21 08:15N 30°03' W 090°29'1 0.5
2014-Oct-21 07:08N 30°02' W 090°29'  

Dump ship's entire track history